createdAt,value
2018-05-23T00:02:26.789Z,15.50
2018-05-23T00:04:54.269Z,15.60
2018-05-23T00:07:21.722Z,15.50
2018-05-23T00:09:49.570Z,15.60
2018-05-23T00:12:17.024Z,15.50
2018-05-23T00:14:45.236Z,15.50
2018-05-23T00:17:12.682Z,15.30
2018-05-23T00:19:40.148Z,15.30
2018-05-23T00:22:07.609Z,15.40
2018-05-23T00:24:35.809Z,15.30
2018-05-23T00:27:03.249Z,15.20
2018-05-23T00:29:30.697Z,15.40
2018-05-23T00:31:58.143Z,15.50
2018-05-23T00:34:25.972Z,15.20
2018-05-23T00:36:53.812Z,15.30
2018-05-23T00:39:22.767Z,15.50
2018-05-23T00:41:50.969Z,15.50
2018-05-23T00:44:18.417Z,15.50
2018-05-23T00:46:45.849Z,15.50
2018-05-23T00:49:13.305Z,15.50
2018-05-23T00:51:40.789Z,15.50
2018-05-23T00:54:08.238Z,15.40
2018-05-23T00:56:35.686Z,15.30
2018-05-23T00:59:03.136Z,15.30
2018-05-23T01:01:30.588Z,15.30
2018-05-23T01:03:58.780Z,15.30
2018-05-23T01:06:26.239Z,15.30
2018-05-23T01:08:54.448Z,15.30
2018-05-23T01:11:22.372Z,15.30
2018-05-23T01:13:49.823Z,15.30
2018-05-23T01:16:17.276Z,15.20
2018-05-23T01:18:45.482Z,15.20
2018-05-23T01:21:12.942Z,15.20
2018-05-23T01:23:40.381Z,15.30
2018-05-23T01:26:07.827Z,15.20
2018-05-23T01:28:36.060Z,15.10
2018-05-23T01:31:03.516Z,15.20
2018-05-23T01:33:30.960Z,15.10
2018-05-23T01:35:58.429Z,15.10
2018-05-23T01:38:25.872Z,15.00
2018-05-23T01:40:54.089Z,14.90
2018-05-23T01:43:22.308Z,14.90
2018-05-23T01:45:49.782Z,15.00
2018-05-23T01:48:17.617Z,15.00
2018-05-23T01:50:45.077Z,15.00
2018-05-23T01:53:12.528Z,14.90
2018-05-23T01:58:09.557Z,14.90
2018-05-23T02:00:37.013Z,14.80
2018-05-23T02:03:04.844Z,14.90
2018-05-23T02:05:33.061Z,14.90
2018-05-23T02:08:00.586Z,14.90
2018-05-23T02:10:28.798Z,14.80
2018-05-23T02:12:56.260Z,14.80
2018-05-23T02:15:24.478Z,14.90
2018-05-23T02:20:21.128Z,14.80
2018-05-23T02:22:49.340Z,14.80
2018-05-23T02:25:16.789Z,14.80
2018-05-23T02:27:44.999Z,14.80
2018-05-23T02:30:12.440Z,14.60
2018-05-23T02:32:40.656Z,14.50
2018-05-23T02:35:08.888Z,14.50
2018-05-23T02:37:36.330Z,14.50
2018-05-23T02:40:03.773Z,14.40
2018-05-23T02:42:31.249Z,14.50
2018-05-23T02:44:58.693Z,14.50
2018-05-23T02:49:55.709Z,14.40
2018-05-23T02:52:23.158Z,14.60
2018-05-23T02:54:50.596Z,14.60
2018-05-23T02:57:19.148Z,14.70
2018-05-23T02:59:46.594Z,14.80
2018-05-23T03:02:14.051Z,14.80
2018-05-23T03:04:41.512Z,14.80
2018-05-23T03:07:08.973Z,14.80
2018-05-23T03:09:37.556Z,14.80
2018-05-23T03:12:05.421Z,14.90
2018-05-23T03:14:33.262Z,14.80
2018-05-23T03:17:00.709Z,14.90
2018-05-23T03:19:28.165Z,14.80
2018-05-23T03:21:55.642Z,14.80
2018-05-23T03:24:23.832Z,14.80
2018-05-23T03:26:51.296Z,14.70
2018-05-23T03:29:18.748Z,14.80
2018-05-23T03:31:46.184Z,14.90
2018-05-23T03:34:14.024Z,14.90
2018-05-23T03:36:41.484Z,14.90
2018-05-23T03:39:08.921Z,15.00
2018-05-23T03:41:37.462Z,14.80
2018-05-23T03:44:04.910Z,14.80
2018-05-23T03:46:32.352Z,14.60
2018-05-23T03:49:00.876Z,14.60
2018-05-23T03:51:28.318Z,14.60
2018-05-23T03:53:56.548Z,14.60
2018-05-23T03:56:24.026Z,14.50
2018-05-23T03:58:51.474Z,14.60
2018-05-23T04:01:30.735Z,14.50
2018-05-23T04:04:10.028Z,14.60
2018-05-23T04:06:49.220Z,14.70
2018-05-23T04:09:16.658Z,14.80
2018-05-23T04:11:44.096Z,14.70
2018-05-23T04:14:11.552Z,14.70
2018-05-23T04:16:39.001Z,14.60
2018-05-23T04:19:07.216Z,14.80
2018-05-23T04:21:35.442Z,14.80
2018-05-23T04:24:02.963Z,14.80
2018-05-23T04:26:31.094Z,14.90
2018-05-23T04:28:58.760Z,14.80
2018-05-23T04:31:26.219Z,14.80
2018-05-23T04:33:54.059Z,14.70
2018-05-23T04:36:21.520Z,14.70
2018-05-23T04:41:17.769Z,14.90
2018-05-23T04:43:45.228Z,14.90
2018-05-23T04:46:12.681Z,15.00
2018-05-23T04:48:40.174Z,15.00
2018-05-23T04:51:08.341Z,15.00
2018-05-23T04:56:04.969Z,15.20
2018-05-23T04:58:33.204Z,15.30
2018-05-23T05:01:00.648Z,15.30
2018-05-23T05:03:28.089Z,15.30
2018-05-23T05:05:55.933Z,15.50
2018-05-23T05:08:23.369Z,15.60
2018-05-23T05:10:50.809Z,15.60
2018-05-23T05:13:19.028Z,15.70
2018-05-23T05:15:47.225Z,15.70
2018-05-23T05:18:14.669Z,15.70
2018-05-23T05:20:42.119Z,15.70
2018-05-23T05:23:10.329Z,15.70
2018-05-23T05:25:37.756Z,15.80
2018-05-23T05:28:05.207Z,15.90
2018-05-23T05:30:33.045Z,16.10
2018-05-23T05:33:00.486Z,15.90
2018-05-23T05:35:29.458Z,15.90
2018-05-23T05:37:56.913Z,15.90
2018-05-23T05:40:24.382Z,16.10
2018-05-23T05:42:51.857Z,16.10
2018-05-23T05:45:19.301Z,16.30
2018-05-23T05:47:46.749Z,16.20
2018-05-23T05:50:14.193Z,16.10
2018-05-23T05:52:42.026Z,16.00
2018-05-23T05:55:10.234Z,16.10
2018-05-23T05:57:37.717Z,16.30
2018-05-23T06:00:05.171Z,16.30
2018-05-23T06:05:01.423Z,16.40
2018-05-23T06:07:28.856Z,16.70
2018-05-23T06:09:56.336Z,16.80
2018-05-23T06:12:24.515Z,16.80
2018-05-23T06:14:51.961Z,16.80
2018-05-23T06:17:19.410Z,16.80
2018-05-23T06:19:46.862Z,17.00
2018-05-23T06:22:14.366Z,17.00
2018-05-23T06:24:41.747Z,16.90
2018-05-23T06:27:09.201Z,17.20
2018-05-23T06:29:36.642Z,17.30
2018-05-23T06:32:04.082Z,17.00
2018-05-23T06:34:31.540Z,17.20
2018-05-23T06:36:59.750Z,17.00
2018-05-23T06:39:27.194Z,17.10
2018-05-23T06:41:54.665Z,17.40
2018-05-23T06:44:22.510Z,17.40
2018-05-23T06:46:49.965Z,17.30
2018-05-23T06:49:17.409Z,17.40
2018-05-23T06:51:44.860Z,17.40
2018-05-23T06:54:12.293Z,17.50
2018-05-23T06:56:39.752Z,17.50
2018-05-23T06:59:07.202Z,17.40
2018-05-23T07:01:35.417Z,17.30
2018-05-23T07:04:02.894Z,17.30
2018-05-23T07:06:30.338Z,17.40
2018-05-23T07:08:58.771Z,17.50
2018-05-23T07:11:26.227Z,17.60
2018-05-23T07:13:53.673Z,17.50
2018-05-23T07:16:21.199Z,17.50
2018-05-23T07:18:48.658Z,17.80
2018-05-23T07:21:16.111Z,17.80
2018-05-23T07:23:43.537Z,17.90
2018-05-23T07:26:10.997Z,17.90
2018-05-23T07:28:38.433Z,18.00
2018-05-23T07:31:05.886Z,18.10
2018-05-23T07:33:33.342Z,18.10
2018-05-23T07:36:00.799Z,18.30
2018-05-23T07:38:28.326Z,18.40
2018-05-23T07:40:55.688Z,18.40
2018-05-23T07:43:23.900Z,18.70
2018-05-23T07:45:51.421Z,18.60
2018-05-23T07:48:19.561Z,18.60
2018-05-23T07:50:48.509Z,18.50
2018-05-23T07:53:15.953Z,18.60
2018-05-23T07:55:44.185Z,18.80
2018-05-23T07:58:12.390Z,18.80
2018-05-23T08:00:39.837Z,18.60
2018-05-23T08:03:08.426Z,18.70
2018-05-23T08:05:37.003Z,19.10
2018-05-23T08:08:04.458Z,19.00
2018-05-23T08:10:31.927Z,18.80
2018-05-23T08:13:00.885Z,19.40
2018-05-23T08:15:28.340Z,19.50
2018-05-23T08:17:55.808Z,19.60
2018-05-23T08:20:23.324Z,20.10
2018-05-23T08:22:50.741Z,20.70
2018-05-23T08:25:18.593Z,20.40
2018-05-23T08:27:46.048Z,21.00
2018-05-23T08:30:13.493Z,21.00
2018-05-23T08:32:40.956Z,21.00
2018-05-23T08:35:08.396Z,21.20
2018-05-23T08:37:36.596Z,20.50
2018-05-23T08:40:04.818Z,20.20
2018-05-23T08:42:32.256Z,20.50
2018-05-23T08:44:59.693Z,20.20
2018-05-23T08:47:27.926Z,20.40
2018-05-23T08:49:55.373Z,20.70
2018-05-23T08:52:22.805Z,20.50
2018-05-23T08:54:51.027Z,20.80
2018-05-23T08:57:18.472Z,21.30
2018-05-23T08:59:46.669Z,21.60
2018-05-23T09:02:14.129Z,22.10
2018-05-23T09:04:41.985Z,23.10
2018-05-23T09:07:10.920Z,22.10
2018-05-23T09:09:38.369Z,21.80
2018-05-23T09:12:06.607Z,22.30
2018-05-23T09:14:34.039Z,22.50
2018-05-23T09:17:01.492Z,22.90
2018-05-23T09:19:29.387Z,22.40
2018-05-23T09:21:57.576Z,22.90
2018-05-23T09:24:25.818Z,22.80
2018-05-23T09:26:53.326Z,22.70
2018-05-23T09:29:20.756Z,22.50
2018-05-23T09:31:49.345Z,23.30
2018-05-23T09:34:16.791Z,24.20
2018-05-23T09:36:44.244Z,23.90
2018-05-23T09:39:11.733Z,23.60
2018-05-23T09:41:40.058Z,23.60
2018-05-23T09:44:08.261Z,23.00
2018-05-23T09:46:35.711Z,22.20
2018-05-23T09:49:03.913Z,21.90
2018-05-23T09:51:32.137Z,22.20
2018-05-23T09:54:00.350Z,22.20
2018-05-23T09:56:27.824Z,21.90
2018-05-23T09:58:56.046Z,22.90
2018-05-23T10:01:23.496Z,23.40
2018-05-23T10:03:51.700Z,23.10
2018-05-23T10:06:19.170Z,23.20
2018-05-23T10:08:46.629Z,22.80
2018-05-23T10:11:14.465Z,23.50
2018-05-23T10:13:41.919Z,23.00
2018-05-23T10:16:09.780Z,22.60
2018-05-23T10:18:37.228Z,23.50
2018-05-23T10:21:04.656Z,23.90
2018-05-23T10:23:32.864Z,23.50
2018-05-23T10:26:00.312Z,23.70
2018-05-23T10:28:29.029Z,22.70
2018-05-23T10:30:57.276Z,23.00
2018-05-23T10:33:24.787Z,23.20
2018-05-23T10:35:52.141Z,24.00
2018-05-23T10:38:20.360Z,24.10
2018-05-23T10:40:47.786Z,22.90
2018-05-23T10:43:16.360Z,23.30
2018-05-23T10:45:43.800Z,22.70
2018-05-23T10:48:11.236Z,22.60
2018-05-23T10:50:38.676Z,22.90
2018-05-23T10:53:06.898Z,21.60
2018-05-23T10:55:34.322Z,21.40
2018-05-23T10:58:01.757Z,22.10
2018-05-23T11:00:29.212Z,22.30
2018-05-23T11:02:56.666Z,22.60
2018-05-23T11:05:24.849Z,21.70
2018-05-23T11:07:52.318Z,21.70
2018-05-23T11:10:19.747Z,22.00
2018-05-23T11:12:47.175Z,22.10
2018-05-23T11:15:14.657Z,21.60
2018-05-23T11:17:42.058Z,21.70
2018-05-23T11:20:10.249Z,21.90
2018-05-23T11:22:38.474Z,22.00
2018-05-23T11:25:05.913Z,22.00
2018-05-23T11:27:34.137Z,21.50
2018-05-23T11:30:02.336Z,21.40
2018-05-23T11:32:29.769Z,22.00
2018-05-23T11:34:57.232Z,22.20
2018-05-23T11:37:24.674Z,21.70
2018-05-23T11:39:52.864Z,21.90
2018-05-23T11:42:21.082Z,21.40
2018-05-23T11:44:48.531Z,22.40
2018-05-23T11:47:15.967Z,22.80
2018-05-23T11:49:43.796Z,23.20
2018-05-23T11:52:11.268Z,23.50
2018-05-23T11:54:39.492Z,23.60
2018-05-23T11:59:36.455Z,23.10
2018-05-23T12:02:04.653Z,22.20
2018-05-23T12:04:32.097Z,21.20
2018-05-23T12:06:59.553Z,21.40
2018-05-23T12:11:55.802Z,21.60
2018-05-23T12:14:23.996Z,21.20
2018-05-23T12:16:51.827Z,20.80
2018-05-23T12:19:19.256Z,20.70
2018-05-23T12:21:46.740Z,21.10
2018-05-23T12:24:14.180Z,21.60
2018-05-23T12:26:41.612Z,21.90
2018-05-23T12:29:09.056Z,20.90
2018-05-23T12:31:36.888Z,20.70
2018-05-23T12:34:04.331Z,21.00
2018-05-23T12:36:32.532Z,20.70
2018-05-23T12:38:59.973Z,20.90
2018-05-23T12:41:28.908Z,20.40
2018-05-23T12:43:56.352Z,20.40
2018-05-23T12:46:24.556Z,21.00
2018-05-23T12:48:51.980Z,21.80
2018-05-23T12:51:19.437Z,21.60
2018-05-23T12:53:47.376Z,22.00
2018-05-23T12:56:14.799Z,22.70
2018-05-23T12:58:42.252Z,22.80
2018-05-23T13:01:09.677Z,23.30
2018-05-23T13:03:37.113Z,23.70
2018-05-23T13:06:05.784Z,22.60
2018-05-23T13:08:33.544Z,23.20
2018-05-23T13:11:00.972Z,23.70
2018-05-23T13:13:28.408Z,22.70
2018-05-23T13:15:55.852Z,23.30
2018-05-23T13:18:23.294Z,23.30
2018-05-23T13:20:50.732Z,23.60
2018-05-23T13:23:18.939Z,22.60
2018-05-23T13:25:46.376Z,22.60
2018-05-23T13:28:13.812Z,22.50
2018-05-23T13:30:41.252Z,23.30
2018-05-23T13:33:08.693Z,22.00
2018-05-23T13:35:36.901Z,21.80
2018-05-23T13:38:04.340Z,22.30
2018-05-23T13:40:32.543Z,21.60
2018-05-23T13:42:59.986Z,22.20
2018-05-23T13:45:28.199Z,22.90
2018-05-23T13:47:55.640Z,23.50
2018-05-23T13:50:23.549Z,23.50
2018-05-23T13:52:50.961Z,23.50
2018-05-23T13:55:18.389Z,23.40
2018-05-23T13:57:45.824Z,23.00
2018-05-23T14:00:14.019Z,22.30
2018-05-23T14:02:41.448Z,22.80
2018-05-23T14:05:08.904Z,23.30
2018-05-23T14:07:36.336Z,23.70
2018-05-23T14:10:03.770Z,23.90
2018-05-23T14:12:31.987Z,23.50
2018-05-23T14:14:59.424Z,24.80
2018-05-23T14:17:28.356Z,24.00
2018-05-23T14:19:55.797Z,23.90
2018-05-23T14:22:23.999Z,23.30
2018-05-23T14:24:51.827Z,24.00
2018-05-23T14:27:19.277Z,24.00
2018-05-23T14:29:47.109Z,24.00
2018-05-23T14:32:15.324Z,23.00
2018-05-23T14:34:43.207Z,23.60
2018-05-23T14:37:11.792Z,23.80
2018-05-23T14:39:40.006Z,23.10
2018-05-23T14:42:08.213Z,24.10
2018-05-23T14:44:35.669Z,23.40
2018-05-23T14:47:03.101Z,23.80
2018-05-23T14:49:30.558Z,23.40
2018-05-23T14:51:57.978Z,24.20
2018-05-23T14:54:25.826Z,24.60
2018-05-23T14:56:54.031Z,24.60
2018-05-23T14:59:21.972Z,25.00
2018-05-23T15:01:50.156Z,25.20
2018-05-23T15:04:17.601Z,25.40
2018-05-23T15:06:45.799Z,26.90
2018-05-23T15:09:13.219Z,25.90
2018-05-23T15:11:40.692Z,26.20
2018-05-23T15:14:08.512Z,27.10
2018-05-23T15:16:35.960Z,26.80
2018-05-23T15:19:04.175Z,27.30
2018-05-23T15:21:31.608Z,27.40
2018-05-23T15:23:59.814Z,27.70
2018-05-23T15:26:27.257Z,28.30
2018-05-23T15:28:54.691Z,28.50
2018-05-23T15:31:22.196Z,28.50
2018-05-23T15:33:49.569Z,28.20
2018-05-23T15:36:17.404Z,28.70
2018-05-23T15:38:44.835Z,28.80
2018-05-23T15:41:12.289Z,27.70
2018-05-23T15:43:40.496Z,27.40
2018-05-23T15:46:08.690Z,27.10
2018-05-23T15:48:36.139Z,26.90
2018-05-23T15:51:04.018Z,26.80
2018-05-23T15:53:32.196Z,26.60
2018-05-23T15:56:00.040Z,25.90
2018-05-23T15:58:27.472Z,26.00
2018-05-23T16:00:54.905Z,26.30
2018-05-23T16:03:22.389Z,25.90
2018-05-23T16:05:49.823Z,25.80
2018-05-23T16:08:17.653Z,26.10
2018-05-23T16:10:45.497Z,26.30
2018-05-23T16:13:13.637Z,26.20
2018-05-23T16:15:41.079Z,25.80
2018-05-23T16:18:09.291Z,26.10
2018-05-23T16:20:36.793Z,25.70
2018-05-23T16:23:04.157Z,25.60
2018-05-23T16:25:32.363Z,25.20
2018-05-23T16:28:00.580Z,24.50
2018-05-23T16:30:28.763Z,24.60
2018-05-23T16:32:56.389Z,25.80
2018-05-23T16:35:25.413Z,26.90
2018-05-23T16:37:52.838Z,26.50
2018-05-23T16:40:20.272Z,27.50
2018-05-23T16:42:47.713Z,27.70
2018-05-23T16:45:15.184Z,26.90
2018-05-23T16:47:42.622Z,26.70
2018-05-23T16:50:10.044Z,25.50
2018-05-23T16:52:38.246Z,24.50
2018-05-23T16:55:05.699Z,24.50
2018-05-23T16:57:34.272Z,24.20
2018-05-23T17:00:01.714Z,24.30
2018-05-23T17:02:29.933Z,23.90
2018-05-23T17:04:57.372Z,23.80
2018-05-23T17:07:25.577Z,23.70
2018-05-23T17:09:53.020Z,23.60
2018-05-23T17:12:20.904Z,23.10
2018-05-23T17:14:48.374Z,23.40
2018-05-23T17:17:16.570Z,23.30
2018-05-23T17:19:44.004Z,23.10
2018-05-23T17:22:12.305Z,23.00
2018-05-23T17:24:40.518Z,22.90
2018-05-23T17:27:08.083Z,22.90
2018-05-23T17:29:35.528Z,22.90
2018-05-23T17:32:03.729Z,22.60
2018-05-23T17:34:31.164Z,22.50
2018-05-23T17:36:58.633Z,22.50
2018-05-23T17:39:26.077Z,22.50
2018-05-23T17:41:53.508Z,22.50
2018-05-23T17:44:21.708Z,22.70
2018-05-23T17:46:49.174Z,22.70
2018-05-23T17:49:17.816Z,22.60
2018-05-23T17:51:45.261Z,22.80
2018-05-23T17:54:13.549Z,23.00
2018-05-23T17:56:40.988Z,22.80
2018-05-23T17:59:09.188Z,22.60
2018-05-23T18:01:37.030Z,22.60
2018-05-23T18:04:04.852Z,22.90
2018-05-23T18:06:32.381Z,22.80
2018-05-23T18:08:59.735Z,22.80
2018-05-23T18:11:27.959Z,22.80
2018-05-23T18:13:55.372Z,22.80
2018-05-23T18:16:24.321Z,22.60
2018-05-23T18:18:52.540Z,22.90
2018-05-23T18:21:19.996Z,22.80
2018-05-23T18:23:47.456Z,22.80
2018-05-23T18:26:15.657Z,22.90
2018-05-23T18:28:43.869Z,22.60
2018-05-23T18:31:12.105Z,22.20
2018-05-23T18:33:41.052Z,22.30
2018-05-23T18:36:08.481Z,22.20
2018-05-23T18:38:35.921Z,22.10
2018-05-23T18:41:03.361Z,21.70
2018-05-23T18:43:30.930Z,21.60
2018-05-23T18:45:58.264Z,21.60
2018-05-23T18:48:26.456Z,21.60
2018-05-23T18:50:54.332Z,21.40
2018-05-23T18:53:21.785Z,21.20
2018-05-23T18:55:50.347Z,21.20
2018-05-23T18:58:18.551Z,21.00
2018-05-23T19:00:45.997Z,20.80
2018-05-23T19:03:13.437Z,20.80
2018-05-23T19:05:42.386Z,20.80
2018-05-23T19:08:09.845Z,20.70
2018-05-23T19:10:37.256Z,20.60
2018-05-23T19:13:04.735Z,20.50
2018-05-23T19:15:32.152Z,20.50
2018-05-23T19:17:59.590Z,20.60
2018-05-23T19:20:27.787Z,20.60
2018-05-23T19:22:56.016Z,20.50
2018-05-23T19:25:23.457Z,20.40
2018-05-23T19:27:51.286Z,20.30
2018-05-23T19:30:18.738Z,20.20
2018-05-23T19:32:46.176Z,20.10
2018-05-23T19:35:13.618Z,19.90
2018-05-23T19:37:41.834Z,19.70
2018-05-23T19:40:09.265Z,19.50
2018-05-23T19:42:38.217Z,19.40
2018-05-23T19:45:05.655Z,19.20
2018-05-23T19:47:33.089Z,19.10
2018-05-23T19:50:00.548Z,19.10
2018-05-23T19:52:28.078Z,19.10
2018-05-23T19:54:55.442Z,18.90
2018-05-23T19:57:22.888Z,19.00
2018-05-23T19:59:51.095Z,18.90
2018-05-23T20:02:18.524Z,18.90
2018-05-23T20:04:46.728Z,18.80
2018-05-23T20:07:19.192Z,18.80
2018-05-23T20:09:46.642Z,18.70
2018-05-23T20:12:14.078Z,18.70
2018-05-23T20:14:41.543Z,18.70
2018-05-23T20:17:09.751Z,18.60
2018-05-23T20:19:37.187Z,18.60
2018-05-23T20:22:04.624Z,18.50
2018-05-23T20:24:32.828Z,18.40
2018-05-23T20:27:00.280Z,18.40
2018-05-23T20:29:28.549Z,18.30
2018-05-23T20:31:55.978Z,18.20
2018-05-23T20:34:23.411Z,18.20
2018-05-23T20:36:51.629Z,18.10
2018-05-23T20:39:19.061Z,18.10
2018-05-23T20:41:48.022Z,18.00
2018-05-23T20:44:15.495Z,18.00
2018-05-23T20:46:42.951Z,17.90
2018-05-23T20:49:10.395Z,17.80
2018-05-23T20:51:37.845Z,17.80
2018-05-23T20:56:34.844Z,17.70
2018-05-23T20:59:02.301Z,17.60
2018-05-23T21:01:29.786Z,17.50
2018-05-23T21:03:57.965Z,17.50
2018-05-23T21:06:26.197Z,17.50
2018-05-23T21:08:53.642Z,17.40
2018-05-23T21:11:21.081Z,17.40
2018-05-23T21:13:48.537Z,17.30
2018-05-23T21:16:15.983Z,17.20
2018-05-23T21:18:43.425Z,17.20
2018-05-23T21:21:10.880Z,17.20
2018-05-23T21:23:38.316Z,17.10
2018-05-23T21:26:06.159Z,17.10
2018-05-23T21:28:33.992Z,17.00
2018-05-23T21:31:01.436Z,17.20
2018-05-23T21:33:29.648Z,17.10
2018-05-23T21:35:57.313Z,17.20
2018-05-23T21:38:24.751Z,17.20
2018-05-23T21:40:52.952Z,17.10
2018-05-23T21:43:20.413Z,17.00
2018-05-23T21:45:48.240Z,16.90
2018-05-23T21:48:15.672Z,16.90
2018-05-23T21:50:43.128Z,16.80
2018-05-23T21:53:12.075Z,16.70
2018-05-23T21:55:40.654Z,16.70
2018-05-23T21:58:08.506Z,16.60
2018-05-23T22:00:35.938Z,16.60
2018-05-23T22:03:03.379Z,16.80
2018-05-23T22:05:31.233Z,16.80
2018-05-23T22:07:58.664Z,16.60
2018-05-23T22:10:26.872Z,16.70
2018-05-23T22:12:54.315Z,16.70
2018-05-23T22:15:22.526Z,16.70
2018-05-23T22:17:49.961Z,16.80
2018-05-23T22:20:17.435Z,16.70
2018-05-23T22:22:44.894Z,16.70
2018-05-23T22:25:12.329Z,16.70
2018-05-23T22:27:39.784Z,16.60
2018-05-23T22:30:07.616Z,16.60
2018-05-23T22:32:35.065Z,16.50
2018-05-23T22:35:03.297Z,16.40
2018-05-23T22:37:30.739Z,16.30
2018-05-23T22:39:58.186Z,16.20
2018-05-23T22:42:25.629Z,16.40
2018-05-23T22:44:53.068Z,16.30
2018-05-23T22:47:20.496Z,16.20
2018-05-23T22:49:47.952Z,16.20
2018-05-23T22:52:15.792Z,16.20
2018-05-23T22:54:43.247Z,16.10
2018-05-23T22:57:11.460Z,16.10
2018-05-23T22:59:38.914Z,16.20
2018-05-23T23:02:06.389Z,16.30
2018-05-23T23:07:03.367Z,16.30
2018-05-23T23:09:30.809Z,16.30
2018-05-23T23:11:58.284Z,16.40
2018-05-23T23:14:26.489Z,16.30
2018-05-23T23:16:53.927Z,16.40
2018-05-23T23:19:21.377Z,16.50
2018-05-23T23:21:48.812Z,16.40
2018-05-23T23:24:16.248Z,16.40
2018-05-23T23:26:44.465Z,16.50
2018-05-23T23:29:11.900Z,16.40
2018-05-23T23:31:40.118Z,16.50
2018-05-23T23:34:07.612Z,16.60
2018-05-23T23:36:35.148Z,16.50
2018-05-23T23:39:03.334Z,16.60
2018-05-23T23:41:30.800Z,16.60
2018-05-23T23:43:58.268Z,16.60
2018-05-23T23:46:25.684Z,16.60
2018-05-23T23:48:53.137Z,16.80
2018-05-23T23:51:20.584Z,16.70
2018-05-23T23:53:48.038Z,16.60
2018-05-23T23:56:16.875Z,16.60
2018-05-23T23:58:44.327Z,16.70
